WAT3321 FQMA-FMMI
Flight info
| Callsign | WAT3321 |
|---|---|
| Flight time | N/A |
| Altitude | 27000 |
| Route | UVERO1A USUMO UB536 EROPA/N0476F350 UB536 VSO/N0477F370 UB536 SOPVI DCT TW TW1B |
| Aircraft | B77L/H-SDE1E2E3FGHIJ2J3J4J5M1RWXY/LB1D1 |
Departure
| Time | N/A |
|---|---|
| Airport | Maputo Airport (FQMA) |
Arrival
| Time | 2026-04-26 12:32 |
|---|---|
| Airport | Ivato International Airport (FMMI) |
| Time | Latitude | Longitude | Altitude | Speed | Heading |
|---|---|---|---|---|---|
| 2026-04-26 12:05 | -20.09281 | 44.74788 | 36888 ft | 505 kts | 59° |
| 2026-04-26 12:05 | -20.07743 | 44.78176 | 36894 ft | 506 kts | 59° |
| 2026-04-26 12:06 | -20.04670 | 44.84940 | 36898 ft | 505 kts | 59° |
| 2026-04-26 12:06 | -20.01607 | 44.91670 | 36908 ft | 506 kts | 59° |
| 2026-04-26 12:07 | -19.98532 | 44.98419 | 36918 ft | 505 kts | 59° |
| 2026-04-26 12:07 | -19.95485 | 45.05098 | 36924 ft | 505 kts | 59° |
| 2026-04-26 12:08 | -19.92415 | 45.11819 | 36937 ft | 505 kts | 59° |
| 2026-04-26 12:08 | -19.89346 | 45.18529 | 36939 ft | 507 kts | 59° |
| 2026-04-26 12:09 | -19.86264 | 45.25262 | 36945 ft | 505 kts | 59° |
| 2026-04-26 12:09 | -19.83191 | 45.31964 | 36937 ft | 508 kts | 59° |
| 2026-04-26 12:10 | -19.80088 | 45.38727 | 36929 ft | 504 kts | 59° |
| 2026-04-26 12:10 | -19.77019 | 45.45405 | 36924 ft | 505 kts | 59° |
| 2026-04-26 12:11 | -19.73926 | 45.52125 | 36924 ft | 506 kts | 59° |
| 2026-04-26 12:11 | -19.70844 | 45.58818 | 36952 ft | 505 kts | 59° |
| 2026-04-26 12:12 | -19.67747 | 45.65533 | 36975 ft | 505 kts | 59° |
| 2026-04-26 12:12 | -19.64675 | 45.72187 | 36985 ft | 506 kts | 59° |
| 2026-04-26 12:13 | -19.61574 | 45.78896 | 36958 ft | 501 kts | 59° |
| 2026-04-26 12:13 | -19.60056 | 45.82180 | 36330 ft | 500 kts | 59° |
| 2026-04-26 12:13 | -19.58516 | 45.85501 | 35414 ft | 505 kts | 59° |
| 2026-04-26 12:13 | -19.56949 | 45.88882 | 34626 ft | 506 kts | 60° |
| 2026-04-26 12:14 | -19.55403 | 45.92218 | 33809 ft | 508 kts | 60° |
| 2026-04-26 12:14 | -19.53850 | 45.95565 | 32988 ft | 509 kts | 60° |
| 2026-04-26 12:14 | -19.52280 | 45.98949 | 32165 ft | 510 kts | 60° |
| 2026-04-26 12:14 | -19.50724 | 46.02299 | 31295 ft | 513 kts | 61° |
| 2026-04-26 12:15 | -19.49137 | 46.05714 | 30494 ft | 512 kts | 61° |
| 2026-04-26 12:15 | -19.47574 | 46.09079 | 30001 ft | 506 kts | 61° |
| 2026-04-26 12:15 | -19.46036 | 46.12387 | 29477 ft | 500 kts | 62° |
| 2026-04-26 12:15 | -19.44500 | 46.15688 | 28910 ft | 495 kts | 62° |
| 2026-04-26 12:16 | -19.42983 | 46.18948 | 28340 ft | 491 kts | 62° |
| 2026-04-26 12:16 | -19.41483 | 46.22167 | 27756 ft | 487 kts | 62° |
| 2026-04-26 12:16 | -19.39995 | 46.25359 | 27186 ft | 483 kts | 62° |
| 2026-04-26 12:16 | -19.38515 | 46.28532 | 26607 ft | 478 kts | 62° |
| 2026-04-26 12:17 | -19.37050 | 46.31671 | 26019 ft | 474 kts | 62° |
| 2026-04-26 12:17 | -19.35604 | 46.34767 | 25443 ft | 470 kts | 62° |
| 2026-04-26 12:17 | -19.34148 | 46.37883 | 24851 ft | 466 kts | 62° |
| 2026-04-26 12:17 | -19.32721 | 46.40935 | 24270 ft | 462 kts | 62° |
| 2026-04-26 12:18 | -19.31305 | 46.43962 | 23691 ft | 458 kts | 62° |
| 2026-04-26 12:18 | -19.29899 | 46.46967 | 23095 ft | 454 kts | 62° |
| 2026-04-26 12:18 | -19.28493 | 46.49970 | 22499 ft | 449 kts | 62° |
| 2026-04-26 12:18 | -19.27122 | 46.52896 | 21927 ft | 445 kts | 62° |
| 2026-04-26 12:19 | -19.25742 | 46.55839 | 21353 ft | 441 kts | 63° |
| 2026-04-26 12:19 | -19.24387 | 46.58717 | 20785 ft | 437 kts | 62° |
| 2026-04-26 12:19 | -19.23023 | 46.61545 | 20206 ft | 433 kts | 62° |
| 2026-04-26 12:19 | -19.21654 | 46.64375 | 19629 ft | 430 kts | 62° |
| 2026-04-26 12:20 | -19.20284 | 46.67205 | 19047 ft | 426 kts | 62° |
| 2026-04-26 12:20 | -19.18946 | 46.69971 | 18473 ft | 422 kts | 62° |
| 2026-04-26 12:20 | -19.17565 | 46.72694 | 17897 ft | 418 kts | 57° |
| 2026-04-26 12:20 | -19.15847 | 46.75131 | 17338 ft | 413 kts | 49° |
| 2026-04-26 12:21 | -19.13956 | 46.77403 | 16773 ft | 409 kts | 48° |
| 2026-04-26 12:21 | -19.12077 | 46.79629 | 16201 ft | 406 kts | 48° |
| 2026-04-26 12:21 | -19.10187 | 46.81868 | 15610 ft | 403 kts | 48° |
| 2026-04-26 12:21 | -19.08309 | 46.84091 | 15031 ft | 400 kts | 48° |
| 2026-04-26 12:22 | -19.06488 | 46.86246 | 14472 ft | 396 kts | 48° |
| 2026-04-26 12:22 | -19.04653 | 46.88417 | 13894 ft | 393 kts | 49° |
| 2026-04-26 12:22 | -19.02828 | 46.90575 | 13229 ft | 385 kts | 49° |
| 2026-04-26 12:22 | -19.01102 | 46.92616 | 12728 ft | 366 kts | 49° |
| 2026-04-26 12:23 | -18.99442 | 46.94578 | 12290 ft | 352 kts | 49° |
| 2026-04-26 12:23 | -18.97794 | 46.96526 | 11756 ft | 352 kts | 49° |
| 2026-04-26 12:23 | -18.96168 | 46.98447 | 11194 ft | 352 kts | 49° |
| 2026-04-26 12:23 | -18.94539 | 47.00371 | 10924 ft | 342 kts | 49° |
| 2026-04-26 12:24 | -18.92991 | 47.02197 | 10835 ft | 328 kts | 49° |
| 2026-04-26 12:24 | -18.91485 | 47.03975 | 10722 ft | 316 kts | 49° |
| 2026-04-26 12:24 | -18.90040 | 47.05679 | 10597 ft | 305 kts | 49° |
| 2026-04-26 12:25 | -18.87307 | 47.08904 | 10325 ft | 285 kts | 49° |
| 2026-04-26 12:25 | -18.85999 | 47.10446 | 10082 ft | 282 kts | 49° |
| 2026-04-26 12:25 | -18.84681 | 47.12000 | 9695 ft | 283 kts | 49° |
| 2026-04-26 12:25 | -18.83348 | 47.13571 | 9315 ft | 284 kts | 49° |
| 2026-04-26 12:26 | -18.82034 | 47.15118 | 8962 ft | 284 kts | 49° |
| 2026-04-26 12:26 | -18.80714 | 47.16674 | 8611 ft | 283 kts | 49° |
| 2026-04-26 12:26 | -18.79403 | 47.18216 | 8328 ft | 280 kts | 49° |
| 2026-04-26 12:26 | -18.78113 | 47.19735 | 8191 ft | 270 kts | 49° |
| 2026-04-26 12:27 | -18.76916 | 47.21210 | 8073 ft | 260 kts | 58° |
| 2026-04-26 12:27 | -18.76230 | 47.22904 | 7976 ft | 246 kts | 81° |
| 2026-04-26 12:27 | -18.76233 | 47.24664 | 7865 ft | 233 kts | 95° |
| 2026-04-26 12:27 | -18.76412 | 47.26316 | 7709 ft | 225 kts | 98° |
| 2026-04-26 12:28 | -18.76637 | 47.27925 | 7404 ft | 218 kts | 99° |
| 2026-04-26 12:28 | -18.76882 | 47.29476 | 7134 ft | 210 kts | 99° |
| 2026-04-26 12:28 | -18.77129 | 47.30992 | 6891 ft | 207 kts | 100° |
| 2026-04-26 12:28 | -18.77361 | 47.32472 | 6633 ft | 204 kts | 98° |
| 2026-04-26 12:29 | -18.77578 | 47.33899 | 6382 ft | 190 kts | 99° |
| 2026-04-26 12:29 | -18.77781 | 47.35223 | 6154 ft | 177 kts | 99° |
| 2026-04-26 12:29 | -18.78140 | 47.37584 | 5746 ft | 152 kts | 100° |
| 2026-04-26 12:30 | -18.78308 | 47.38683 | 5558 ft | 152 kts | 98° |
| 2026-04-26 12:30 | -18.78473 | 47.39784 | 5355 ft | 152 kts | 98° |
| 2026-04-26 12:30 | -18.78635 | 47.40868 | 5205 ft | 149 kts | 98° |
| 2026-04-26 12:31 | -18.78969 | 47.43054 | 4838 ft | 151 kts | 99° |
| 2026-04-26 12:31 | -18.79128 | 47.44137 | 4635 ft | 149 kts | 100° |
| 2026-04-26 12:31 | -18.79292 | 47.45216 | 4462 ft | 147 kts | 101° |
| 2026-04-26 12:31 | -18.79452 | 47.46283 | 4288 ft | 148 kts | 102° |
| 2026-04-26 12:32 | -18.79608 | 47.47312 | 4190 ft | 123 kts | 101° |
| 2026-04-26 12:32 | -18.79690 | 47.47844 | 4175 ft | 37 kts | 99° |
| 2026-04-26 12:32 | -18.79768 | 47.48114 | 4174 ft | 12 kts | 168° |
| 2026-04-26 12:33 | -18.79843 | 47.48109 | 4178 ft | 8 kts | 188° |
| 2026-04-26 12:33 | -18.79888 | 47.48103 | 4179 ft | 5 kts | 181° |
| 2026-04-26 12:33 | -18.79901 | 47.48102 | 4180 ft | 5 kts | 181° |
| 2026-04-26 12:33 | -18.79923 | 47.48102 | 4181 ft | 0 kts | 182° |
| 2026-04-26 12:34 | -18.79932 | 47.48101 | 4181 ft | 2 kts | 185° |
| 2026-04-26 12:34 | -18.79951 | 47.48099 | 4183 ft | 4 kts | 188° |
| 2026-04-26 12:34 | -18.79983 | 47.48093 | 4185 ft | 2 kts | 190° |
| 2026-04-26 12:34 | -18.79990 | 47.48092 | 4185 ft | 0 kts | 189° |
| 2026-04-26 12:35 | -18.79993 | 47.48091 | 4186 ft | 0 kts | 189° |